createdAt,value
2018-02-27T00:00:45.616Z,1018.6
2018-02-27T00:01:47.365Z,1018.5
2018-02-27T00:02:49.654Z,1018.5
2018-02-27T00:03:51.688Z,1018.5
2018-02-27T00:04:53.890Z,1018.5
2018-02-27T00:05:56.287Z,1018.5
2018-02-27T00:06:58.512Z,1018.5
2018-02-27T00:08:00.746Z,1018.5
2018-02-27T00:09:03.133Z,1018.5
2018-02-27T00:10:05.233Z,1018.5
2018-02-27T00:11:07.390Z,1018.5
2018-02-27T00:12:09.751Z,1018.4
2018-02-27T00:13:12.017Z,1018.5
2018-02-27T00:14:14.130Z,1018.5
2018-02-27T00:15:16.576Z,1018.5
2018-02-27T00:16:18.891Z,1018.5
2018-02-27T00:17:20.929Z,1018.5
2018-02-27T00:18:22.982Z,1018.5
2018-02-27T00:19:25.410Z,1018.5
2018-02-27T00:20:27.481Z,1018.5
2018-02-27T00:21:29.753Z,1018.5
2018-02-27T00:22:31.828Z,1018.5
2018-02-27T00:23:33.940Z,1018.5
2018-02-27T00:24:36.118Z,1018.5
2018-02-27T00:25:38.212Z,1018.5
2018-02-27T00:26:40.402Z,1018.5
2018-02-27T00:27:42.733Z,1018.6
2018-02-27T00:28:45.233Z,1018.6
2018-02-27T00:29:47.415Z,1018.6
2018-02-27T00:30:49.235Z,1018.6
2018-02-27T00:31:51.348Z,1018.6
2018-02-27T00:32:53.428Z,1018.7
2018-02-27T00:33:55.584Z,1018.6
2018-02-27T00:34:57.670Z,1018.6
2018-02-27T00:35:59.802Z,1018.6
2018-02-27T00:37:01.972Z,1018.7
2018-02-27T00:38:04.143Z,1018.7
2018-02-27T00:39:06.233Z,1018.7
2018-02-27T00:40:08.369Z,1018.7
2018-02-27T00:41:10.366Z,1018.7
2018-02-27T00:42:12.559Z,1018.7
2018-02-27T00:43:14.627Z,1018.7
2018-02-27T00:44:16.756Z,1018.7
2018-02-27T00:45:18.811Z,1018.7
2018-02-27T00:46:20.999Z,1018.7
2018-02-27T00:47:23.010Z,1018.8
2018-02-27T00:48:25.467Z,1018.7
2018-02-27T00:49:27.458Z,1018.8
2018-02-27T00:50:29.644Z,1018.7
2018-02-27T00:51:31.598Z,1018.8
2018-02-27T00:52:33.677Z,1018.7
2018-02-27T00:53:35.781Z,1018.7
2018-02-27T00:54:37.948Z,1018.7
2018-02-27T00:55:39.803Z,1018.8
2018-02-27T00:56:41.932Z,1018.8
2018-02-27T00:57:44.297Z,1018.8
2018-02-27T00:58:46.270Z,1018.8
2018-02-27T00:59:48.751Z,1018.8
2018-02-27T01:00:51.217Z,1018.8
2018-02-27T01:01:53.188Z,1018.8
2018-02-27T01:02:55.393Z,1018.8
2018-02-27T01:03:57.534Z,1018.8
2018-02-27T01:04:59.588Z,1018.8
2018-02-27T01:06:01.641Z,1018.9
2018-02-27T01:07:04.089Z,1018.8
2018-02-27T01:08:06.550Z,1018.8
2018-02-27T01:09:08.603Z,1018.9
2018-02-27T01:10:11.000Z,1018.9
2018-02-27T01:11:13.088Z,1018.9
2018-02-27T01:12:15.386Z,1018.8
2018-02-27T01:13:17.461Z,1018.8
2018-02-27T01:14:19.416Z,1018.8
2018-02-27T01:15:21.459Z,1018.8
2018-02-27T01:16:23.508Z,1018.8
2018-02-27T01:17:25.709Z,1018.7
2018-02-27T01:18:27.726Z,1018.7
2018-02-27T01:19:30.209Z,1018.7
2018-02-27T01:20:32.228Z,1018.7
2018-02-27T01:21:34.246Z,1018.7
2018-02-27T01:22:36.357Z,1018.7
2018-02-27T01:23:38.389Z,1018.7
2018-02-27T01:24:40.533Z,1018.6
2018-02-27T01:25:42.633Z,1018.7
2018-02-27T01:26:44.398Z,1018.7
2018-02-27T01:27:46.650Z,1018.6
2018-02-27T01:28:49.071Z,1018.6
2018-02-27T01:29:51.555Z,1018.6
2018-02-27T01:30:53.581Z,1018.7
2018-02-27T01:31:55.581Z,1018.7
2018-02-27T01:32:57.605Z,1018.6
2018-02-27T01:33:59.408Z,1018.6
2018-02-27T01:35:01.334Z,1018.6
2018-02-27T01:36:03.359Z,1018.6
2018-02-27T01:37:05.441Z,1018.6
2018-02-27T01:38:07.724Z,1018.6
2018-02-27T01:39:09.713Z,1018.6
2018-02-27T01:40:11.744Z,1018.6
2018-02-27T01:41:13.725Z,1018.6
2018-02-27T01:42:15.679Z,1018.6
2018-02-27T01:43:17.851Z,1018.6
2018-02-27T01:44:19.785Z,1018.6
2018-02-27T01:45:22.076Z,1018.6
2018-02-27T01:46:24.679Z,1018.6
2018-02-27T01:47:26.817Z,1018.6
2018-02-27T01:48:29.378Z,1018.6
2018-02-27T01:49:31.861Z,1018.5
2018-02-27T01:50:34.020Z,1018.5
2018-02-27T01:51:36.347Z,1018.5
2018-02-27T01:52:38.765Z,1018.5
2018-02-27T01:53:40.964Z,1018.4
2018-02-27T01:54:42.912Z,1018.5
2018-02-27T01:55:44.895Z,1018.5
2018-02-27T01:56:47.027Z,1018.5
2018-02-27T01:57:49.070Z,1018.4
2018-02-27T01:58:51.153Z,1018.5
2018-02-27T01:59:53.428Z,1018.4
2018-02-27T02:00:55.334Z,1018.5
2018-02-27T02:01:57.464Z,1018.4
2018-02-27T02:02:59.445Z,1018.4
2018-02-27T02:04:01.545Z,1018.4
2018-02-27T02:05:04.085Z,1018.4
2018-02-27T02:06:06.216Z,1018.4
2018-02-27T02:07:08.742Z,1018.4
2018-02-27T02:08:10.893Z,1018.4
2018-02-27T02:09:12.984Z,1018.4
2018-02-27T02:10:15.272Z,1018.4
2018-02-27T02:11:17.268Z,1018.4
2018-02-27T02:12:19.145Z,1018.4
2018-02-27T02:13:21.212Z,1018.4
2018-02-27T02:14:23.062Z,1018.4
2018-02-27T02:15:25.012Z,1018.3
2018-02-27T02:16:27.139Z,1018.3
2018-02-27T02:17:29.199Z,1018.3
2018-02-27T02:18:31.323Z,1018.4
2018-02-27T02:19:33.777Z,1018.3
2018-02-27T02:20:35.652Z,1018.3
2018-02-27T02:21:37.509Z,1018.3
2018-02-27T02:22:39.300Z,1018.3
2018-02-27T02:23:41.211Z,1018.3
2018-02-27T02:24:43.123Z,1018.3
2018-02-27T02:25:45.509Z,1018.3
2018-02-27T02:26:47.229Z,1018.3
2018-02-27T02:27:49.299Z,1018.3
2018-02-27T02:28:51.223Z,1018.2
2018-02-27T02:29:53.164Z,1018.2
2018-02-27T02:30:55.275Z,1018.2
2018-02-27T02:31:57.224Z,1018.3
2018-02-27T02:32:59.783Z,1018.2
2018-02-27T02:34:01.926Z,1018.2
2018-02-27T02:35:04.352Z,1018.2
2018-02-27T02:36:06.231Z,1018.2
2018-02-27T02:37:08.240Z,1018.2
2018-02-27T02:38:10.026Z,1018.3
2018-02-27T02:39:11.960Z,1018.3
2018-02-27T02:40:14.386Z,1018.3
2018-02-27T02:41:16.239Z,1018.3
2018-02-27T02:42:18.138Z,1018.3
2018-02-27T02:43:20.003Z,1018.3
2018-02-27T02:44:22.128Z,1018.3
2018-02-27T02:45:24.045Z,1018.3
2018-02-27T02:46:25.898Z,1018.2
2018-02-27T02:47:27.872Z,1018.3
2018-02-27T02:48:30.017Z,1018.3
2018-02-27T02:49:32.515Z,1018.3
2018-02-27T02:50:34.615Z,1018.3
2018-02-27T02:51:36.444Z,1018.3
2018-02-27T02:52:38.288Z,1018.3
2018-02-27T02:53:40.293Z,1018.3
2018-02-27T02:54:42.769Z,1018.2
2018-02-27T02:55:44.704Z,1018.3
2018-02-27T02:56:46.478Z,1018.3
2018-02-27T02:57:48.593Z,1018.3
2018-02-27T02:58:50.386Z,1018.3
2018-02-27T02:59:52.449Z,1018.3
2018-02-27T03:00:54.285Z,1018.3
2018-02-27T03:01:56.314Z,1018.3
2018-02-27T03:02:58.349Z,1018.3
2018-02-27T03:04:00.475Z,1018.3
2018-02-27T03:05:02.396Z,1018.3
2018-02-27T03:06:04.249Z,1018.3
2018-02-27T03:07:06.106Z,1018.3
2018-02-27T03:08:08.089Z,1018.3
2018-02-27T03:09:10.108Z,1018.3
2018-02-27T03:10:12.151Z,1018.3
2018-02-27T03:11:14.502Z,1018.3
2018-02-27T03:12:16.338Z,1018.3
2018-02-27T03:13:18.573Z,1018.3
2018-02-27T03:14:20.983Z,1018.3
2018-02-27T03:15:23.061Z,1018.3
2018-02-27T03:16:24.868Z,1018.3
2018-02-27T03:17:27.308Z,1018.3
2018-02-27T03:18:29.051Z,1018.3
2018-02-27T03:19:30.791Z,1018.3
2018-02-27T03:20:32.668Z,1018.2
2018-02-27T03:21:34.618Z,1018.2
2018-02-27T03:22:36.430Z,1018.2
2018-02-27T03:23:38.169Z,1018.2
2018-02-27T03:24:40.065Z,1018.2
2018-02-27T03:25:41.932Z,1018.2
2018-02-27T03:26:43.638Z,1018.2
2018-02-27T03:27:45.517Z,1018.2
2018-02-27T03:28:47.261Z,1018.3
2018-02-27T03:29:49.014Z,1018.2
2018-02-27T03:30:50.962Z,1018.2
2018-02-27T03:31:52.747Z,1018.1
2018-02-27T03:32:54.504Z,1018.1
2018-02-27T03:33:56.444Z,1018.2
2018-02-27T03:34:58.202Z,1018.2
2018-02-27T03:36:00.583Z,1018.1
2018-02-27T03:37:02.654Z,1018.2
2018-02-27T03:38:04.550Z,1018.1
2018-02-27T03:39:06.331Z,1018.1
2018-02-27T03:40:08.045Z,1018.1
2018-02-27T03:41:09.832Z,1018.1
2018-02-27T03:42:11.631Z,1018.1
2018-02-27T03:43:13.417Z,1018.1
2018-02-27T03:44:15.242Z,1018.1
2018-02-27T03:45:16.951Z,1018.1
2018-02-27T03:46:18.649Z,1018.0
2018-02-27T03:47:20.392Z,1018.0
2018-02-27T03:48:22.137Z,1018.1
2018-02-27T03:49:23.889Z,1018.0
2018-02-27T03:50:25.672Z,1018.0
2018-02-27T03:51:27.376Z,1018.0
2018-02-27T03:52:29.097Z,1018.0
2018-02-27T03:53:30.868Z,1018.0
2018-02-27T03:54:32.574Z,1018.1
2018-02-27T03:55:34.301Z,1018.0
2018-02-27T03:56:36.056Z,1018.0
2018-02-27T03:57:37.996Z,1018.0
2018-02-27T03:58:39.727Z,1018.0
2018-02-27T03:59:41.546Z,1018.0
2018-02-27T04:00:43.291Z,1018.0
2018-02-27T04:01:45.108Z,1018.0
2018-02-27T04:02:47.056Z,1018.0
2018-02-27T04:03:48.765Z,1018.0
2018-02-27T04:04:50.506Z,1018.0
2018-02-27T04:05:52.290Z,1018.0
2018-02-27T04:06:54.013Z,1018.0
2018-02-27T04:07:55.779Z,1018.0
2018-02-27T04:08:57.523Z,1017.9
2018-02-27T04:09:59.386Z,1018.0
2018-02-27T04:11:01.132Z,1017.9
2018-02-27T04:12:02.959Z,1017.9
2018-02-27T04:13:04.693Z,1017.9
2018-02-27T04:14:06.406Z,1017.9
2018-02-27T04:15:08.355Z,1017.9
2018-02-27T04:16:10.281Z,1017.9
2018-02-27T04:17:12.150Z,1017.9
2018-02-27T04:18:14.053Z,1017.9
2018-02-27T04:19:15.751Z,1017.9
2018-02-27T04:20:17.632Z,1017.9
2018-02-27T04:21:19.427Z,1017.9
2018-02-27T04:22:21.130Z,1018.0
2018-02-27T04:23:22.909Z,1018.0
2018-02-27T04:24:24.772Z,1018.0
2018-02-27T04:25:26.530Z,1018.0
2018-02-27T04:26:28.218Z,1018.0
2018-02-27T04:27:30.096Z,1018.0
2018-02-27T04:28:31.782Z,1018.0
2018-02-27T04:29:33.560Z,1018.0
2018-02-27T04:30:35.456Z,1018.0
2018-02-27T04:31:37.192Z,1018.0
2018-02-27T04:32:38.977Z,1017.9
2018-02-27T04:33:40.688Z,1017.9
2018-02-27T04:34:42.399Z,1017.9
2018-02-27T04:35:44.277Z,1018.0
2018-02-27T04:36:46.006Z,1017.9
2018-02-27T04:37:47.952Z,1017.9
2018-02-27T04:38:49.722Z,1018.0
2018-02-27T04:39:51.606Z,1018.0
2018-02-27T04:40:53.502Z,1018.0
2018-02-27T04:41:55.234Z,1018.0
2018-02-27T04:42:56.932Z,1017.9
2018-02-27T04:43:58.872Z,1018.0
2018-02-27T04:45:00.620Z,1017.9
2018-02-27T04:46:02.396Z,1018.0
2018-02-27T04:47:04.221Z,1017.9
2018-02-27T04:48:06.103Z,1017.9
2018-02-27T04:49:07.836Z,1017.9
2018-02-27T04:50:09.749Z,1017.9
2018-02-27T04:51:11.589Z,1017.9
2018-02-27T04:52:13.346Z,1017.9
2018-02-27T04:53:15.043Z,1017.9
2018-02-27T04:54:16.762Z,1017.9
2018-02-27T04:55:18.557Z,1017.9
2018-02-27T04:56:20.490Z,1017.8
2018-02-27T04:57:22.632Z,1017.9
2018-02-27T04:58:24.317Z,1017.8
2018-02-27T04:59:26.260Z,1017.9
2018-02-27T05:00:28.044Z,1017.9
2018-02-27T05:01:29.788Z,1017.9
2018-02-27T05:02:31.548Z,1017.8
2018-02-27T05:03:33.321Z,1017.8
2018-02-27T05:04:35.058Z,1017.8
2018-02-27T05:05:36.994Z,1017.8
2018-02-27T05:06:38.654Z,1017.8
2018-02-27T05:07:40.448Z,1017.8
2018-02-27T05:08:42.187Z,1017.8
2018-02-27T05:09:43.903Z,1017.8
2018-02-27T05:10:46.483Z,1017.8
2018-02-27T05:11:48.196Z,1017.8
2018-02-27T05:12:49.976Z,1017.8
2018-02-27T05:13:51.942Z,1017.9
2018-02-27T05:14:53.688Z,1017.8
2018-02-27T05:15:55.593Z,1017.8
2018-02-27T05:16:57.278Z,1017.8
2018-02-27T05:18:01.892Z,1017.8
2018-02-27T05:19:05.845Z,1017.8
2018-02-27T05:20:07.561Z,1017.8
2018-02-27T05:21:10.940Z,1017.9
2018-02-27T05:22:14.013Z,1017.8
2018-02-27T05:23:18.060Z,1017.8
2018-02-27T05:24:20.519Z,1017.9
2018-02-27T05:25:24.221Z,1017.9
2018-02-27T05:26:26.066Z,1017.9
2018-02-27T05:27:28.329Z,1017.9
2018-02-27T05:28:30.125Z,1017.8
2018-02-27T05:29:31.778Z,1017.8
2018-02-27T05:30:33.515Z,1017.8
2018-02-27T05:31:35.127Z,1017.8
2018-02-27T05:32:36.796Z,1017.9
2018-02-27T05:33:38.529Z,1017.8
2018-02-27T05:34:40.208Z,1017.8
2018-02-27T05:35:41.852Z,1017.8
2018-02-27T05:36:43.520Z,1017.8
2018-02-27T05:37:45.204Z,1017.8
2018-02-27T05:38:46.879Z,1017.8
2018-02-27T05:39:48.576Z,1017.8
2018-02-27T05:40:50.256Z,1017.7
2018-02-27T05:41:51.900Z,1017.7
2018-02-27T05:42:55.453Z,1017.8
2018-02-27T05:43:57.232Z,1017.7
2018-02-27T05:44:58.936Z,1017.8
2018-02-27T05:46:00.618Z,1017.7
2018-02-27T05:47:02.269Z,1017.7
2018-02-27T05:48:03.965Z,1017.7
2018-02-27T05:49:05.644Z,1017.7
2018-02-27T05:50:07.321Z,1017.8
2018-02-27T05:51:09.019Z,1017.7
2018-02-27T05:52:10.713Z,1017.7
2018-02-27T05:53:12.358Z,1017.7
2018-02-27T05:54:14.025Z,1017.7
2018-02-27T05:55:15.693Z,1017.7
2018-02-27T05:56:17.357Z,1017.7
2018-02-27T05:57:18.996Z,1017.8
2018-02-27T05:58:20.636Z,1017.8
2018-02-27T05:59:22.311Z,1017.8
2018-02-27T06:00:23.998Z,1017.8
2018-02-27T06:01:25.627Z,1017.8
2018-02-27T06:02:27.269Z,1017.8
2018-02-27T06:03:28.964Z,1017.8
2018-02-27T06:04:30.596Z,1017.8
2018-02-27T06:05:32.205Z,1017.8
2018-02-27T06:06:33.816Z,1017.9
2018-02-27T06:07:35.422Z,1017.9
2018-02-27T06:08:37.044Z,1017.9
2018-02-27T06:09:38.775Z,1017.9
2018-02-27T06:10:40.401Z,1017.9
2018-02-27T06:11:42.076Z,1017.9
2018-02-27T06:12:43.763Z,1017.9
2018-02-27T06:13:45.610Z,1017.9
2018-02-27T06:14:47.252Z,1017.8
2018-02-27T06:15:49.049Z,1017.9
2018-02-27T06:16:50.674Z,1017.9
2018-02-27T06:17:52.370Z,1017.8
2018-02-27T06:18:54.070Z,1017.9
2018-02-27T06:19:55.758Z,1017.9
2018-02-27T06:20:57.418Z,1017.9
2018-02-27T06:21:59.473Z,1017.9
2018-02-27T06:23:01.172Z,1017.9
2018-02-27T06:24:02.865Z,1017.8
2018-02-27T06:25:04.546Z,1017.9
2018-02-27T06:26:06.321Z,1017.9
2018-02-27T06:27:08.001Z,1017.9
2018-02-27T06:28:09.610Z,1017.9
2018-02-27T06:29:11.909Z,1017.9
2018-02-27T06:30:13.535Z,1017.8
2018-02-27T06:31:15.419Z,1017.9
2018-02-27T06:32:17.180Z,1017.9
2018-02-27T06:33:18.872Z,1017.9
2018-02-27T06:34:20.517Z,1017.9
2018-02-27T06:35:22.165Z,1017.9
2018-02-27T06:36:23.820Z,1017.9
2018-02-27T06:37:25.560Z,1018.0
2018-02-27T06:38:27.265Z,1017.9
2018-02-27T06:39:28.955Z,1017.9
2018-02-27T06:40:30.921Z,1017.9
2018-02-27T06:41:32.587Z,1017.9
2018-02-27T06:42:34.253Z,1017.9
2018-02-27T06:43:36.258Z,1017.9
2018-02-27T06:44:38.358Z,1017.9
2018-02-27T06:45:40.031Z,1017.9
2018-02-27T06:46:41.664Z,1017.9
2018-02-27T06:47:44.778Z,1018.0
2018-02-27T06:48:45.712Z,1018.0
2018-02-27T06:49:47.426Z,1018.0
2018-02-27T06:50:49.071Z,1018.0
2018-02-27T06:51:50.693Z,1018.0
2018-02-27T06:52:52.341Z,1018.0
2018-02-27T06:53:53.976Z,1018.0
2018-02-27T06:54:55.638Z,1018.0
2018-02-27T06:55:57.288Z,1018.0
2018-02-27T06:56:59.017Z,1018.0
2018-02-27T06:58:00.749Z,1018.0
2018-02-27T06:59:02.442Z,1018.0
2018-02-27T07:00:04.185Z,1018.0
2018-02-27T07:01:05.885Z,1018.0
2018-02-27T07:02:07.520Z,1018.0
2018-02-27T07:03:09.142Z,1018.0
2018-02-27T07:04:10.768Z,1018.1
2018-02-27T07:05:12.398Z,1018.1
2018-02-27T07:06:14.104Z,1018.1
2018-02-27T07:07:15.768Z,1018.0
2018-02-27T07:08:17.451Z,1018.1
2018-02-27T07:09:19.167Z,1018.1
2018-02-27T07:10:21.067Z,1018.1
2018-02-27T07:11:22.673Z,1018.1
2018-02-27T07:12:24.366Z,1018.1
2018-02-27T07:13:26.002Z,1018.1
2018-02-27T07:14:27.688Z,1018.1
2018-02-27T07:15:29.318Z,1018.1
2018-02-27T07:16:30.944Z,1018.1
2018-02-27T07:17:32.644Z,1018.1
2018-02-27T07:18:34.256Z,1018.0
2018-02-27T07:19:35.963Z,1018.0
2018-02-27T07:20:37.621Z,1018.1
2018-02-27T07:21:39.241Z,1018.1
2018-02-27T07:22:40.948Z,1018.1
2018-02-27T07:23:42.606Z,1018.1
2018-02-27T07:24:44.280Z,1018.1
2018-02-27T07:25:45.876Z,1018.1
2018-02-27T07:26:47.531Z,1018.1
2018-02-27T07:27:49.239Z,1018.1
2018-02-27T07:28:50.862Z,1018.1
2018-02-27T07:29:52.513Z,1018.1
2018-02-27T07:30:54.166Z,1018.1
2018-02-27T07:31:55.829Z,1018.1
2018-02-27T07:32:57.462Z,1018.1
2018-02-27T07:33:59.241Z,1018.1
2018-02-27T07:35:00.897Z,1018.0
2018-02-27T07:36:02.527Z,1018.1
2018-02-27T07:37:04.209Z,1018.1
2018-02-27T07:38:05.837Z,1018.1
2018-02-27T07:39:07.533Z,1018.1
2018-02-27T07:40:09.194Z,1018.1
2018-02-27T07:41:10.816Z,1018.1
2018-02-27T07:42:12.497Z,1018.1
2018-02-27T07:43:14.129Z,1018.1
2018-02-27T07:44:15.759Z,1018.1
2018-02-27T07:45:17.420Z,1018.1
2018-02-27T07:46:19.054Z,1018.1
2018-02-27T07:47:20.708Z,1018.1
2018-02-27T07:48:22.409Z,1018.1
2018-02-27T07:49:24.059Z,1018.1
2018-02-27T07:50:25.747Z,1018.1
2018-02-27T07:51:27.507Z,1018.1
2018-02-27T07:52:29.189Z,1018.1
2018-02-27T07:53:30.887Z,1018.2
2018-02-27T07:54:32.598Z,1018.1
2018-02-27T07:55:34.247Z,1018.1
2018-02-27T07:56:35.940Z,1018.1
2018-02-27T07:57:37.570Z,1018.1
2018-02-27T07:58:39.223Z,1018.2
2018-02-27T07:59:40.871Z,1018.2
2018-02-27T08:00:42.568Z,1018.2
2018-02-27T08:01:44.188Z,1018.1
2018-02-27T08:02:45.868Z,1018.2
2018-02-27T08:03:47.509Z,1018.1
2018-02-27T08:04:49.190Z,1018.1
2018-02-27T08:05:50.803Z,1018.1
2018-02-27T08:06:52.498Z,1018.1
2018-02-27T08:07:54.244Z,1018.1
2018-02-27T08:08:55.874Z,1018.1
2018-02-27T08:09:57.587Z,1018.1
2018-02-27T08:10:59.322Z,1018.1
2018-02-27T08:12:01.065Z,1018.1
2018-02-27T08:13:02.716Z,1018.1
2018-02-27T08:14:04.334Z,1018.1
2018-02-27T08:15:05.980Z,1018.0
2018-02-27T08:16:07.976Z,1018.1
2018-02-27T08:17:09.717Z,1018.1
2018-02-27T08:18:11.400Z,1018.0
2018-02-27T08:19:13.238Z,1018.0
2018-02-27T08:20:14.956Z,1018.1
2018-02-27T08:21:16.675Z,1018.1
2018-02-27T08:22:18.362Z,1018.1
2018-02-27T08:23:20.063Z,1018.0
2018-02-27T08:24:21.748Z,1018.1
2018-02-27T08:25:23.517Z,1018.1
2018-02-27T08:26:25.411Z,1018.1
2018-02-27T08:27:27.225Z,1018.0
2018-02-27T08:28:28.947Z,1018.1
2018-02-27T08:29:30.586Z,1018.1
2018-02-27T08:30:32.309Z,1018.1
2018-02-27T08:31:34.033Z,1018.1
2018-02-27T08:32:35.712Z,1018.1
2018-02-27T08:33:37.426Z,1018.1
2018-02-27T08:34:39.144Z,1018.0
2018-02-27T08:35:40.799Z,1018.0
2018-02-27T08:36:42.504Z,1018.1
2018-02-27T08:37:44.146Z,1018.1
2018-02-27T08:38:45.920Z,1018.1
2018-02-27T08:39:47.620Z,1018.2
2018-02-27T08:40:49.268Z,1018.1
2018-02-27T08:41:50.946Z,1018.1
2018-02-27T08:42:52.591Z,1018.1
2018-02-27T08:43:54.243Z,1018.1
2018-02-27T08:44:55.897Z,1018.2
2018-02-27T08:45:57.593Z,1018.1
2018-02-27T08:46:59.265Z,1018.2
2018-02-27T08:48:00.932Z,1018.2
2018-02-27T08:49:02.638Z,1018.2
2018-02-27T08:50:04.293Z,1018.1
2018-02-27T08:51:05.991Z,1018.2
2018-02-27T08:52:07.704Z,1018.2
2018-02-27T08:53:09.447Z,1018.2
2018-02-27T08:54:11.153Z,1018.2
2018-02-27T08:55:12.916Z,1018.3
2018-02-27T08:56:14.582Z,1018.2
2018-02-27T08:57:16.221Z,1018.2
2018-02-27T08:58:17.846Z,1018.3
2018-02-27T08:59:19.510Z,1018.3
2018-02-27T09:00:21.193Z,1018.3
2018-02-27T09:01:23.555Z,1018.3
2018-02-27T09:02:25.192Z,1018.4
2018-02-27T09:03:26.907Z,1018.5
2018-02-27T09:04:28.612Z,1018.6
2018-02-27T09:05:30.260Z,1018.6
2018-02-27T09:06:31.999Z,1018.6
2018-02-27T09:07:33.745Z,1018.7
2018-02-27T09:08:35.413Z,1018.7
2018-02-27T09:09:37.074Z,1018.7
2018-02-27T09:10:38.739Z,1018.7
2018-02-27T09:11:40.420Z,1018.6
2018-02-27T09:12:42.134Z,1018.8
2018-02-27T09:13:43.783Z,1018.6
2018-02-27T09:14:45.534Z,1018.6
2018-02-27T09:15:47.202Z,1018.5
2018-02-27T09:16:48.934Z,1018.7
2018-02-27T09:17:50.558Z,1018.6
2018-02-27T09:18:52.198Z,1018.6
2018-02-27T09:19:53.885Z,1018.5
2018-02-27T09:20:55.516Z,1018.4
2018-02-27T09:21:57.223Z,1018.2
2018-02-27T09:22:58.874Z,1018.2
2018-02-27T09:24:00.938Z,1018.2
2018-02-27T09:25:03.215Z,1018.3
2018-02-27T09:26:05.127Z,1018.2
2018-02-27T09:27:06.838Z,1018.4
2018-02-27T09:28:08.917Z,1018.4
2018-02-27T09:29:10.997Z,1018.4
2018-02-27T09:30:13.025Z,1018.4
2018-02-27T09:31:15.741Z,1018.5
2018-02-27T09:32:17.660Z,1018.5
2018-02-27T09:33:19.599Z,1018.3
2018-02-27T09:34:21.841Z,1018.2
2018-02-27T09:35:24.107Z,1018.2
2018-02-27T09:36:27.063Z,1018.3
2018-02-27T09:37:29.432Z,1018.2
2018-02-27T09:38:31.660Z,1018.0
2018-02-27T09:39:33.966Z,1018.0
2018-02-27T09:40:36.283Z,1018.3
2018-02-27T09:41:38.350Z,1018.1
2018-02-27T09:42:40.309Z,1018.0
2018-02-27T09:43:42.778Z,1018.2
2018-02-27T09:44:44.516Z,1018.1
2018-02-27T09:45:46.249Z,1018.1
2018-02-27T09:46:48.013Z,1018.4
2018-02-27T09:47:49.718Z,1018.5
2018-02-27T09:48:51.573Z,1018.4
2018-02-27T09:49:53.974Z,1018.1
2018-02-27T09:50:56.082Z,1018.1
2018-02-27T09:51:57.971Z,1018.2
2018-02-27T09:52:59.961Z,1018.5
2018-02-27T09:54:02.434Z,1018.3
2018-02-27T09:55:04.912Z,1018.1
2018-02-27T09:56:07.198Z,1018.3
2018-02-27T09:57:09.472Z,1018.5
2018-02-27T09:58:11.654Z,1018.3
2018-02-27T09:59:13.873Z,1018.3
2018-02-27T10:00:16.052Z,1018.4
2018-02-27T10:01:17.982Z,1018.9
2018-02-27T10:02:19.968Z,1019.0
2018-02-27T10:03:21.969Z,1018.8
2018-02-27T10:04:23.763Z,1018.5
2018-02-27T10:05:25.904Z,1018.6
2018-02-27T10:06:27.721Z,1018.2
2018-02-27T10:07:30.257Z,1018.2
2018-02-27T10:08:32.288Z,1017.9
2018-02-27T10:09:34.459Z,1018.0
2018-02-27T10:10:36.729Z,1017.9
2018-02-27T10:11:38.933Z,1018.1
2018-02-27T10:12:41.301Z,1018.2
2018-02-27T10:13:44.771Z,1018.4
2018-02-27T10:14:46.712Z,1018.4
2018-02-27T10:15:48.501Z,1018.1
2018-02-27T10:16:50.317Z,1018.8
2018-02-27T10:17:52.165Z,1018.9
2018-02-27T10:18:54.699Z,1018.3
2018-02-27T10:19:56.845Z,1018.1
2018-02-27T10:20:59.362Z,1018.1
2018-02-27T10:22:01.494Z,1018.7
2018-02-27T10:23:03.504Z,1019.7
2018-02-27T10:24:05.601Z,1018.8
2018-02-27T10:25:14.559Z,1018.6
2018-02-27T10:26:16.412Z,1018.4
2018-02-27T10:27:18.779Z,1019.1
2018-02-27T10:28:21.074Z,1018.3
2018-02-27T10:29:23.122Z,1018.7
2018-02-27T10:30:25.452Z,1020.3
2018-02-27T10:31:28.270Z,1020.4
2018-02-27T10:32:30.163Z,1018.4
2018-02-27T10:33:31.974Z,1018.8
2018-02-27T10:34:34.036Z,1019.5
2018-02-27T10:35:36.305Z,1019.6
2018-02-27T10:36:38.401Z,1020.2
2018-02-27T10:37:40.437Z,1018.9
2018-02-27T10:38:42.211Z,1019.6
2018-02-27T10:39:44.027Z,1020.0
2018-02-27T10:40:45.722Z,1019.0
2018-02-27T10:41:48.086Z,1018.5
2018-02-27T10:42:50.379Z,1018.3
2018-02-27T10:43:52.499Z,1020.0
2018-02-27T10:44:54.820Z,1021.1
2018-02-27T10:45:57.070Z,1021.5
2018-02-27T10:46:59.288Z,1022.6
2018-02-27T10:48:01.021Z,1021.5
2018-02-27T10:49:03.228Z,1022.0
2018-02-27T10:50:05.281Z,1021.6
2018-02-27T10:51:07.262Z,1021.5
2018-02-27T10:52:09.301Z,1019.4
2018-02-27T10:53:11.557Z,1019.9
2018-02-27T10:54:13.473Z,1020.2
2018-02-27T10:55:15.893Z,1020.6
2018-02-27T10:56:18.108Z,1021.2
2018-02-27T10:57:20.327Z,1019.2
2018-02-27T10:58:22.120Z,1019.3
2018-02-27T10:59:23.958Z,1020.3
2018-02-27T11:00:25.729Z,1018.9
2018-02-27T11:01:27.777Z,1018.2
2018-02-27T11:02:30.055Z,1018.0
2018-02-27T11:03:32.285Z,1021.5
2018-02-27T11:04:34.271Z,1022.7
2018-02-27T11:05:36.469Z,1022.9
2018-02-27T11:06:38.553Z,1021.0
2018-02-27T11:07:40.268Z,1019.7
2018-02-27T11:08:42.308Z,1019.7
2018-02-27T11:09:43.883Z,1019.8
2018-02-27T11:10:45.865Z,1020.7
2018-02-27T11:11:47.493Z,1022.9
2018-02-27T11:12:49.141Z,1023.3
2018-02-27T11:13:50.969Z,1025.7
2018-02-27T11:14:52.633Z,1026.3
2018-02-27T11:15:54.268Z,1026.6
2018-02-27T11:16:56.314Z,1027.6
2018-02-27T11:17:58.235Z,1025.5
2018-02-27T11:19:00.300Z,1026.9
2018-02-27T11:20:02.052Z,1027.9
2018-02-27T11:21:03.997Z,1029.0
2018-02-27T11:22:06.037Z,1029.5
2018-02-27T11:23:07.847Z,1030.1
2018-02-27T11:24:09.577Z,1031.0
2018-02-27T11:25:11.627Z,1031.3
2018-02-27T11:26:13.375Z,1032.1
2018-02-27T11:27:15.460Z,1031.5
2018-02-27T11:28:17.126Z,1033.6
2018-02-27T11:29:18.888Z,1033.2
2018-02-27T11:30:20.963Z,1032.0
2018-02-27T11:31:22.706Z,1030.5
2018-02-27T11:32:24.409Z,1032.7
2018-02-27T11:33:26.513Z,1032.7
2018-02-27T11:34:28.348Z,1033.0
2018-02-27T11:35:30.352Z,1033.7
2018-02-27T11:36:32.215Z,1031.5
2018-02-27T11:37:33.965Z,1033.9
2018-02-27T11:38:36.016Z,1034.8
2018-02-27T11:39:37.644Z,1036.6
2018-02-27T11:40:39.384Z,1039.2
2018-02-27T11:41:41.076Z,1038.8
2018-02-27T11:42:42.772Z,1041.1
2018-02-27T11:43:45.457Z,1039.2
2018-02-27T11:44:47.194Z,1035.5
2018-02-27T11:45:49.141Z,1035.2
2018-02-27T11:46:51.595Z,1034.8
2018-02-27T11:47:53.430Z,1034.6
2018-02-27T11:48:55.634Z,1033.1
2018-02-27T11:49:57.258Z,1038.9
2018-02-27T11:50:59.082Z,1040.1
2018-02-27T11:52:00.848Z,1039.4
2018-02-27T11:53:02.587Z,1040.0
2018-02-27T11:54:04.588Z,1039.3
2018-02-27T11:55:06.640Z,1042.3
2018-02-27T11:56:08.875Z,1047.6
2018-02-27T11:57:11.302Z,1050.4
2018-02-27T11:58:13.057Z,1048.7
2018-02-27T11:59:14.807Z,1047.2
2018-02-27T12:00:16.514Z,1048.2
2018-02-27T12:01:18.364Z,1049.8
2018-02-27T12:02:20.042Z,1050.1
2018-02-27T12:03:21.727Z,1049.7
2018-02-27T12:04:23.497Z,1049.0
2018-02-27T12:05:25.173Z,1049.0
2018-02-27T12:06:26.802Z,1048.4
2018-02-27T12:07:28.548Z,1048.1
2018-02-27T12:08:30.154Z,1051.3
2018-02-27T12:09:31.913Z,1046.7
2018-02-27T12:10:33.660Z,1037.9
2018-02-27T12:11:35.386Z,1043.9
2018-02-27T12:12:37.021Z,1048.8
2018-02-27T12:13:38.705Z,1047.9
2018-02-27T12:14:40.348Z,1047.8
2018-02-27T12:15:42.015Z,1047.8
2018-02-27T12:16:43.645Z,1048.2
2018-02-27T12:17:45.419Z,1047.3
2018-02-27T12:18:47.099Z,1047.9
2018-02-27T12:19:48.840Z,1044.7
2018-02-27T12:20:50.537Z,1044.9
2018-02-27T12:21:52.165Z,1046.3
2018-02-27T12:22:53.910Z,1047.6
2018-02-27T12:23:55.533Z,1045.9
2018-02-27T12:24:57.254Z,1046.9
2018-02-27T12:25:59.015Z,1047.2
2018-02-27T12:27:00.652Z,1046.8
2018-02-27T12:28:02.307Z,1045.6
2018-02-27T12:29:04.042Z,1044.7
2018-02-27T12:30:05.761Z,1044.2
2018-02-27T12:31:07.506Z,1043.2
2018-02-27T12:32:09.285Z,1044.0
2018-02-27T12:33:10.968Z,1044.3
2018-02-27T12:34:12.733Z,1044.3
2018-02-27T12:35:14.466Z,1041.9
2018-02-27T12:36:16.245Z,1040.3
2018-02-27T12:37:17.993Z,1041.7
2018-02-27T12:38:19.765Z,1044.3
2018-02-27T12:39:21.486Z,1046.4
2018-02-27T12:40:23.344Z,1045.8
2018-02-27T12:41:25.018Z,1042.8
2018-02-27T12:42:26.657Z,1041.8
2018-02-27T12:43:28.379Z,1040.6
2018-02-27T12:44:30.034Z,1040.6
2018-02-27T12:45:31.732Z,1039.4
2018-02-27T12:46:33.433Z,1039.1
2018-02-27T12:47:35.209Z,1039.8
2018-02-27T12:48:36.874Z,1038.5
2018-02-27T12:49:38.548Z,1038.0
2018-02-27T12:50:40.303Z,1038.8
2018-02-27T12:51:42.057Z,1040.7
2018-02-27T12:52:43.696Z,1040.6